createdAt,value
2022-12-01T00:03:06.309Z,12.52
2022-12-01T00:06:58.839Z,13.45
2022-12-01T00:10:51.417Z,14.70
2022-12-01T00:14:44.381Z,15.82
2022-12-01T00:18:37.403Z,15.48
2022-12-01T00:22:30.018Z,15.52
2022-12-01T00:26:23.721Z,14.27
2022-12-01T00:30:18.087Z,15.30
2022-12-01T00:34:22.918Z,15.25
2022-12-01T00:38:16.078Z,14.20
2022-12-01T00:42:13.276Z,13.52
2022-12-01T00:46:06.332Z,16.05
2022-12-01T00:49:59.714Z,18.20
2022-12-01T00:53:52.264Z,17.15
2022-12-01T00:57:44.902Z,16.88
2022-12-01T01:01:38.004Z,16.60
2022-12-01T01:05:30.705Z,13.95
2022-12-01T01:09:23.399Z,11.55
2022-12-01T01:13:16.956Z,10.73
2022-12-01T01:17:09.608Z,10.40
2022-12-01T01:21:08.226Z,9.43
2022-12-01T01:25:00.558Z,8.60
2022-12-01T01:28:56.201Z,7.72
2022-12-01T01:32:48.773Z,7.43
2022-12-01T01:36:41.246Z,7.70
2022-12-01T01:40:33.953Z,7.93
2022-12-01T01:44:50.314Z,7.90
2022-12-01T01:48:50.413Z,7.30
2022-12-01T01:52:52.023Z,8.60
2022-12-01T01:56:46.229Z,8.77
2022-12-01T02:00:42.966Z,9.07
2022-12-01T02:04:37.952Z,8.77
2022-12-01T02:08:31.229Z,6.93
2022-12-01T02:12:51.757Z,5.35
2022-12-01T02:16:57.484Z,5.28
2022-12-01T02:21:27.363Z,5.22
2022-12-01T02:25:40.616Z,7.10
2022-12-01T02:29:51.432Z,8.10
2022-12-01T02:33:53.128Z,7.45
2022-12-01T02:38:09.944Z,6.22
2022-12-01T02:42:40.131Z,5.63
2022-12-01T02:46:42.161Z,5.40
2022-12-01T02:50:36.803Z,4.68
2022-12-01T02:54:31.436Z,5.00
2022-12-01T02:58:24.021Z,5.25
2022-12-01T03:02:25.406Z,5.90
2022-12-01T03:06:46.665Z,5.47
2022-12-01T03:10:54.583Z,5.60
2022-12-01T03:15:15.453Z,6.47
2022-12-01T03:19:19.851Z,6.28
2022-12-01T03:23:20.659Z,6.32
2022-12-01T03:27:18.223Z,7.50
2022-12-01T03:35:14.722Z,11.48
2022-12-01T03:39:15.293Z,8.15
2022-12-01T03:43:12.191Z,7.55
2022-12-01T03:47:09.694Z,7.20
2022-12-01T03:55:20.420Z,6.32
2022-12-01T03:59:14.622Z,9.60
2022-12-01T04:03:07.799Z,7.25
2022-12-01T04:07:00.508Z,7.88
2022-12-01T04:10:53.056Z,7.75
2022-12-01T04:14:45.414Z,6.13
2022-12-01T04:18:38.006Z,6.65
2022-12-01T04:22:30.467Z,7.00
2022-12-01T04:26:23.129Z,7.72
2022-12-01T04:30:15.605Z,9.15
2022-12-01T04:34:08.483Z,9.13
2022-12-01T04:38:01.080Z,8.27
2022-12-01T04:41:53.790Z,8.00
2022-12-01T04:45:46.495Z,8.70
2022-12-01T04:49:39.306Z,10.45
2022-12-01T04:53:32.140Z,11.10
2022-12-01T04:57:24.696Z,11.50
2022-12-01T05:01:18.902Z,11.27
2022-12-01T05:05:11.684Z,11.60
2022-12-01T05:09:04.321Z,10.43
2022-12-01T05:12:58.483Z,11.38
2022-12-01T05:16:51.214Z,10.68
2022-12-01T05:20:58.677Z,10.23
2022-12-01T05:24:51.280Z,10.32
2022-12-01T05:28:43.855Z,12.68
2022-12-01T05:32:36.760Z,14.43
2022-12-01T05:36:29.607Z,10.82
2022-12-01T05:40:22.113Z,11.93
2022-12-01T05:44:14.764Z,11.88
2022-12-01T05:48:07.461Z,12.82
2022-12-01T05:52:00.030Z,12.13
2022-12-01T05:55:54.442Z,11.60
2022-12-01T05:59:50.373Z,11.68
2022-12-01T06:03:43.141Z,11.38
2022-12-01T06:07:36.107Z,12.20
2022-12-01T06:11:28.604Z,15.75
2022-12-01T06:15:21.204Z,12.32
2022-12-01T06:19:13.553Z,11.45
2022-12-01T06:23:06.062Z,11.02
2022-12-01T06:26:58.781Z,11.00
2022-12-01T06:30:51.375Z,12.43
2022-12-01T06:34:44.037Z,12.05
2022-12-01T06:38:37.346Z,24.23
2022-12-01T06:42:32.427Z,13.00
2022-12-01T06:46:25.064Z,13.80
2022-12-01T06:50:17.896Z,12.63
2022-12-01T06:54:12.156Z,12.73
2022-12-01T06:58:05.790Z,13.13
2022-12-01T07:01:59.043Z,16.17
2022-12-01T07:05:58.748Z,23.40
2022-12-01T07:09:51.795Z,19.65
2022-12-01T07:13:45.701Z,15.07
2022-12-01T07:17:38.282Z,15.23
2022-12-01T07:21:30.827Z,20.25
2022-12-01T07:25:23.536Z,23.13
2022-12-01T07:29:16.256Z,12.20
2022-12-01T07:33:08.688Z,12.80
2022-12-01T07:37:01.254Z,13.80
2022-12-01T07:40:53.802Z,11.50
2022-12-01T07:44:46.248Z,11.48
2022-12-01T07:48:40.805Z,12.45
2022-12-01T07:52:33.393Z,14.27
2022-12-01T07:56:26.070Z,16.38
2022-12-01T08:00:18.911Z,18.92
2022-12-01T08:04:11.357Z,14.82
2022-12-01T08:08:04.137Z,13.82
2022-12-01T08:11:56.798Z,12.40
2022-12-01T08:15:49.164Z,22.70
2022-12-01T08:19:42.091Z,24.02
2022-12-01T08:23:35.130Z,22.00
2022-12-01T08:27:27.746Z,20.70
2022-12-01T08:31:24.563Z,18.80
2022-12-01T08:35:17.128Z,16.60
2022-12-01T08:39:10.077Z,16.90
2022-12-01T08:43:02.723Z,18.17
2022-12-01T08:46:55.712Z,17.15
2022-12-01T08:50:48.365Z,18.23
2022-12-01T08:54:41.094Z,18.05
2022-12-01T08:58:34.086Z,17.85
2022-12-01T09:02:26.855Z,17.30
2022-12-01T09:06:20.860Z,18.05
2022-12-01T09:10:13.607Z,16.10
2022-12-01T09:14:06.023Z,15.80
2022-12-01T09:17:58.610Z,17.48
2022-12-01T09:21:51.266Z,18.17
2022-12-01T09:25:43.723Z,18.90
2022-12-01T09:29:36.371Z,20.48
2022-12-01T09:33:29.113Z,20.48
2022-12-01T09:37:21.582Z,20.48
2022-12-01T09:41:25.098Z,21.25
2022-12-01T09:45:28.274Z,19.23
2022-12-01T09:49:25.436Z,18.92
2022-12-01T09:53:22.458Z,19.58
2022-12-01T09:57:24.607Z,18.52
2022-12-01T10:01:26.923Z,16.83
2022-12-01T10:05:27.344Z,13.85
2022-12-01T10:09:35.184Z,13.38
2022-12-01T10:13:29.074Z,13.88
2022-12-01T10:17:21.593Z,15.60
2022-12-01T10:21:19.928Z,16.90
2022-12-01T10:25:21.621Z,18.92
2022-12-01T10:29:35.818Z,18.67
2022-12-01T10:33:40.338Z,16.05
2022-12-01T10:37:33.135Z,13.65
2022-12-01T10:41:29.856Z,14.88
2022-12-01T10:45:44.492Z,14.90
2022-12-01T10:49:39.296Z,14.23
2022-12-01T10:53:34.076Z,14.35
2022-12-01T10:57:29.579Z,13.13
2022-12-01T11:01:25.136Z,13.95
2022-12-01T11:05:33.013Z,13.48
2022-12-01T11:09:28.635Z,14.00
2022-12-01T11:13:30.321Z,13.43
2022-12-01T11:17:22.857Z,12.50
2022-12-01T11:21:26.710Z,13.73
2022-12-01T11:25:22.605Z,13.82
2022-12-01T11:29:36.266Z,14.00
2022-12-01T11:33:31.084Z,12.32
2022-12-01T11:37:29.475Z,11.40
2022-12-01T11:41:28.411Z,12.30
2022-12-01T11:45:21.068Z,12.63
2022-12-01T11:49:19.805Z,12.50
2022-12-01T11:53:30.280Z,12.43
2022-12-01T11:57:37.925Z,11.05
2022-12-01T12:01:57.944Z,12.13
2022-12-01T12:06:39.499Z,10.85
2022-12-01T12:10:35.892Z,12.32
2022-12-01T12:14:54.735Z,12.70
2022-12-01T12:18:50.385Z,12.38
2022-12-01T12:23:07.498Z,12.48
2022-12-01T12:27:22.594Z,11.27
2022-12-01T12:31:44.427Z,12.88
2022-12-01T12:35:55.414Z,13.13
2022-12-01T12:40:06.134Z,11.77
2022-12-01T12:44:24.452Z,12.18
2022-12-01T12:48:57.277Z,12.07
2022-12-01T12:53:01.528Z,12.05
2022-12-01T12:57:36.350Z,12.82
2022-12-01T13:01:36.629Z,12.00
2022-12-01T13:05:31.225Z,12.90
2022-12-01T13:09:29.926Z,11.85
2022-12-01T13:13:44.616Z,13.95
2022-12-01T13:17:40.905Z,28.77
2022-12-01T13:21:40.860Z,14.20
2022-12-01T13:25:38.814Z,12.73
2022-12-01T13:29:40.975Z,13.75
2022-12-01T13:33:37.957Z,16.17
2022-12-01T13:37:34.579Z,17.80
2022-12-01T13:41:32.369Z,20.43
2022-12-01T13:45:29.155Z,14.73
2022-12-01T13:49:42.667Z,14.57
2022-12-01T13:53:37.196Z,14.82
2022-12-01T13:57:34.948Z,14.10
2022-12-01T14:01:29.016Z,13.23
2022-12-01T14:05:39.872Z,13.35
2022-12-01T14:09:37.465Z,14.88
2022-12-01T14:13:31.634Z,12.93
2022-12-01T14:17:33.737Z,12.52
2022-12-01T14:21:47.591Z,13.23
2022-12-01T14:25:41.151Z,12.98
2022-12-01T14:29:38.636Z,13.57
2022-12-01T14:33:51.287Z,15.52
2022-12-01T14:37:47.069Z,16.77
2022-12-01T14:41:52.152Z,15.75
2022-12-01T14:45:55.781Z,17.15
2022-12-01T14:49:55.146Z,16.33
2022-12-01T14:53:50.379Z,17.98
2022-12-01T14:57:59.852Z,18.30
2022-12-01T15:01:56.050Z,17.83
2022-12-01T15:05:48.842Z,20.25
2022-12-01T15:09:59.109Z,20.20
2022-12-01T15:13:54.645Z,25.08
2022-12-01T15:17:47.679Z,25.17
2022-12-01T15:21:40.467Z,30.65
2022-12-01T15:25:36.486Z,34.60
2022-12-01T15:29:35.507Z,38.10
2022-12-01T15:33:37.178Z,41.92
2022-12-01T15:37:39.348Z,54.00
2022-12-01T15:41:32.538Z,45.60
2022-12-01T15:45:25.375Z,43.03
2022-12-01T15:49:30.211Z,46.70
2022-12-01T15:53:27.437Z,37.20
2022-12-01T15:57:21.912Z,29.67
2022-12-01T16:01:21.490Z,24.88
2022-12-01T16:05:14.137Z,26.75
2022-12-01T16:09:33.701Z,25.17
2022-12-01T16:13:35.485Z,24.00
2022-12-01T16:17:40.868Z,26.02
2022-12-01T16:21:42.758Z,27.02
2022-12-01T16:25:44.343Z,34.20
2022-12-01T16:29:51.443Z,32.35
2022-12-01T16:33:44.109Z,29.37
2022-12-01T16:37:37.014Z,27.50
2022-12-01T16:41:38.335Z,24.13
2022-12-01T16:45:31.208Z,23.67
2022-12-01T16:49:23.982Z,27.15
2022-12-01T16:53:17.501Z,27.45
2022-12-01T16:57:10.423Z,27.73
2022-12-01T17:01:05.500Z,24.08
2022-12-01T17:04:58.277Z,23.05
2022-12-01T17:08:51.371Z,26.70
2022-12-01T17:12:44.277Z,25.38
2022-12-01T17:16:37.434Z,26.08
2022-12-01T17:20:30.245Z,26.83
2022-12-01T17:24:23.171Z,25.70
2022-12-01T17:28:16.206Z,28.95
2022-12-01T17:32:11.661Z,44.15
2022-12-01T17:36:08.297Z,48.88
2022-12-01T17:40:01.354Z,46.58
2022-12-01T17:43:54.464Z,38.60
2022-12-01T17:47:47.757Z,33.97
2022-12-01T17:51:41.385Z,31.20
2022-12-01T17:55:33.970Z,28.13
2022-12-01T17:59:26.609Z,28.92
2022-12-01T18:03:20.375Z,29.88
2022-12-01T18:07:13.817Z,38.38
2022-12-01T18:11:10.607Z,37.85
2022-12-01T18:15:03.799Z,35.25
2022-12-01T18:19:00.250Z,35.42
2022-12-01T18:22:53.055Z,35.88
2022-12-01T18:26:47.387Z,35.33
2022-12-01T18:30:40.801Z,28.67
2022-12-01T18:34:34.615Z,27.63
2022-12-01T18:38:28.334Z,29.80
2022-12-01T18:42:21.388Z,27.05
2022-12-01T18:46:16.235Z,27.15
2022-12-01T18:50:09.492Z,26.20
2022-12-01T18:54:04.710Z,26.88
2022-12-01T18:57:57.838Z,23.45
2022-12-01T19:01:52.295Z,24.63
2022-12-01T19:05:46.469Z,28.15
2022-12-01T19:09:39.815Z,29.25
2022-12-01T19:13:34.559Z,24.70
2022-12-01T19:17:27.909Z,21.85
2022-12-01T19:21:21.084Z,21.48
2022-12-01T19:25:14.490Z,21.65
2022-12-01T19:29:08.032Z,20.08
2022-12-01T19:33:01.057Z,21.13
2022-12-01T19:36:54.486Z,22.65
2022-12-01T19:40:47.600Z,23.15
2022-12-01T19:44:40.608Z,23.67
2022-12-01T19:48:33.528Z,22.95
2022-12-01T19:52:26.807Z,23.67
2022-12-01T19:56:20.564Z,24.95
2022-12-01T20:00:13.966Z,24.92
2022-12-01T20:04:08.347Z,31.48
2022-12-01T20:08:03.239Z,33.28
2022-12-01T20:11:56.528Z,30.73
2022-12-01T20:15:49.573Z,30.10
2022-12-01T20:19:42.985Z,30.73
2022-12-01T20:23:36.535Z,30.15
2022-12-01T20:27:30.348Z,33.17
2022-12-01T20:31:26.659Z,34.50
2022-12-01T20:35:19.677Z,30.00
2022-12-01T20:39:13.329Z,31.00
2022-12-01T20:43:05.790Z,29.23
2022-12-01T20:46:58.936Z,26.90
2022-12-01T20:50:52.262Z,30.45
2022-12-01T20:54:45.337Z,25.48
2022-12-01T20:58:39.886Z,24.35
2022-12-01T21:02:32.452Z,24.02
2022-12-01T21:06:24.980Z,22.00
2022-12-01T21:10:20.172Z,21.38
2022-12-01T21:14:23.840Z,21.77
2022-12-01T21:18:23.258Z,20.55
2022-12-01T21:22:16.363Z,20.48
2022-12-01T21:26:15.790Z,21.15
2022-12-01T21:30:17.304Z,22.35
2022-12-01T21:34:27.291Z,20.67
2022-12-01T21:38:22.126Z,21.75
2022-12-01T21:42:21.728Z,21.00
2022-12-01T21:46:16.362Z,19.88
2022-12-01T21:50:16.659Z,18.95
2022-12-01T21:54:19.047Z,18.80
2022-12-01T21:58:24.937Z,19.02
2022-12-01T22:02:42.332Z,20.42
2022-12-01T22:06:41.362Z,21.38
2022-12-01T22:10:57.866Z,23.67
2022-12-01T22:14:50.937Z,27.20
2022-12-01T22:18:50.928Z,21.02
2022-12-01T22:22:43.957Z,20.98
2022-12-01T22:26:39.044Z,22.10
2022-12-01T22:30:31.918Z,23.38
2022-12-01T22:34:24.483Z,24.17
2022-12-01T22:38:37.765Z,24.27
2022-12-01T22:42:33.169Z,25.23
2022-12-01T22:46:34.865Z,24.75
2022-12-01T22:50:32.859Z,22.92
2022-12-01T22:54:28.394Z,22.13
2022-12-01T22:58:30.489Z,22.58
2022-12-01T23:02:35.003Z,20.50
2022-12-01T23:06:55.596Z,18.67
2022-12-01T23:10:48.304Z,17.30
2022-12-01T23:14:48.245Z,16.15
2022-12-01T23:18:41.034Z,16.75
2022-12-01T23:22:33.415Z,16.08
2022-12-01T23:26:26.029Z,16.20
2022-12-01T23:30:20.479Z,16.58
2022-12-01T23:34:15.508Z,16.05
2022-12-01T23:38:15.820Z,15.98
2022-12-01T23:42:09.926Z,16.35
2022-12-01T23:46:07.790Z,17.33
2022-12-01T23:50:03.446Z,23.02
2022-12-01T23:53:57.807Z,28.65
2022-12-01T23:57:50.536Z,18.35
